Flight Track Log - Related Links

Times and Time Zones

All times are in EDT time to prevent confusion due to time zone crossing. See the ASQ6188 flight status page for this flight to view local times or setup timezone preferences in your user account.

Time Position Orientation Groundspeed Altitude Reporting Facility
EDT Latitude Longitude Course Direction KTS MPH feet Rate Location/Type
Mon 04:10:16 PM 38.3633 -81.6931 289° West 231 266 4,800  Level Indianapolis Center
Mon 04:11:18 PM 38.4222 -81.7442 326° Northwest 251 289 7,100 2,468 Climbing Indianapolis Center
Mon 04:12:20 PM 38.4961 -81.8061 327° Northwest 264 304 9,900 2,226 Climbing Indianapolis Center
Mon 04:13:22 PM 38.5611 -81.8619 326° Northwest 279 321 11,700 1,488 Climbing Indianapolis Center
Mon 04:14:00 PM 38.7178 -81.9780 317° Northwest  Level FlightAware Approximate
Mon 04:14:25 PM 38.6319 -81.9231 326° Northwest 301 346 13,000  Level Indianapolis Center
Mon 04:15:27 PM 38.7072 -81.9861 327° Northwest 317 365 14,700 1,161 Climbing Indianapolis Center
Mon 04:16:29 PM 38.7822 -82.0603 322° Northwest 339 390 15,400 871 Climbing Indianapolis Center
Mon 04:17:31 PM 38.8519 -82.1517 314° West 357 411 16,500 1,065 Climbing Indianapolis Center
Mon 04:18:33 PM 38.9228 -82.2417 315° West 358 412 17,600 871 Climbing Indianapolis Center
Mon 04:19:35 PM 38.9958 -82.3350 315° West 369 425 18,300 871 Climbing Indianapolis Center
Mon 04:20:37 PM 39.0839 -82.4489 315° West 374 430 19,400 1,016 Climbing Indianapolis Center
Mon 04:21:39 PM 39.1583 -82.5461 315° West 379 436 20,400 919 Climbing Indianapolis Center
Mon 04:22:41 PM 39.2311 -82.6392 315° West 383 441 21,300 823 Climbing Indianapolis Center
Mon 04:23:43 PM 39.3058 -82.7367 315° West 380 437 22,100 871 Climbing Indianapolis Center
Mon 04:24:45 PM 39.3928 -82.8500 315° West 378 435 23,100 1,016 Climbing Indianapolis Center
Mon 04:25:47 PM 39.4669 -82.9469 315° West 376 433 24,200 1,016 Climbing Indianapolis Center
Mon 04:26:49 PM 39.5397 -83.0422 315° West 371 427 25,200 968 Climbing Indianapolis Center
Mon 04:27:51 PM 39.6122 -83.1383 314° West 370 426 26,200 968 Climbing Indianapolis Center
Mon 04:28:53 PM 39.6836 -83.2325 315° West 364 419 27,200 871 Climbing Indianapolis Center
Mon 04:29:55 PM 39.7539 -83.3253 315° West 358 412 28,000 387 Climbing Indianapolis Center
Mon 04:30:57 PM 39.8278 -83.4225 315° West 364 419 28,000  Level Indianapolis Center
Mon 04:31:59 PM 39.9033 -83.5244 314° West 383 441 28,000  Level Indianapolis Center
Mon 04:33:01 PM 39.9869 -83.6364 314° West 393 452 28,000  Level Indianapolis Center
Mon 04:34:03 PM 40.0653 -83.7414 314° West 399 459 28,000  Level Indianapolis Center
Mon 04:35:05 PM 40.1436 -83.8469 314° West 401 461 28,000  Level Indianapolis Center
Mon 04:36:07 PM 40.2358 -83.9717 314° West 405 466 28,000  Level Indianapolis Center
Mon 04:37:09 PM 40.3111 -84.0797 312° West 398 458 28,000  Level Indianapolis Center
Mon 04:38:11 PM 40.3794 -84.1917 309° West 390 449 28,000  Level Indianapolis Center
Mon 04:39:13 PM 40.4436 -84.2981 308° West 373 429 28,000  Level Indianapolis Center
Mon 04:40:15 PM 40.5031 -84.3944 309° West 343 395 28,000  Level Indianapolis Center
Mon 04:41:17 PM 40.5614 -84.4903 309° West 334 384 28,000  Level Indianapolis Center
Mon 04:42:19 PM 40.6197 -84.5872 308° West 335 386 28,000  Level Indianapolis Center
Mon 04:43:22 PM 40.6900 -84.7022 309° West 341 392 28,000  Level Indianapolis Center
Mon 04:44:24 PM 40.7486 -84.8025 308° West 343 395 28,000  Level Indianapolis Center
Mon 04:45:26 PM 40.8100 -84.9022 309° West 346 398 28,000  Level Indianapolis Center
Mon 04:46:06 PM 40.8483 -84.9669 308° West 343 395 28,000  Level Chicago Center
Mon 04:47:08 PM 40.8964 -85.0786 300° West 346 398 28,000  Level Chicago Center
Mon 04:48:10 PM 40.9447 -85.1997 298° West 359 413 28,000 -435 Level Chicago Center
Mon 04:49:12 PM 40.9969 -85.3267 299° West 376 433 27,100 -919 Descending Chicago Center
Mon 04:50:14 PM 41.0517 -85.4611 298° West 401 461 26,100 -1,016 Descending Chicago Center
Mon 04:51:16 PM 41.1131 -85.6281 296° West 415 478 25,000 -532 Descending Chicago Center
Mon 04:52:18 PM 41.1550 -85.7686 292° West 411 473 25,000  Level Chicago Center
Mon 04:53:20 PM 41.1967 -85.9100 291° West 408 470 25,000  Level Chicago Center
Mon 04:54:22 PM 41.2386 -86.0506 292° West 409 471 25,000  Level Chicago Center
Mon 04:55:25 PM 41.2800 -86.1925 291° West 411 473 25,000 -96 Level Chicago Center
Mon 04:56:27 PM 41.3219 -86.3347 291° West 413 475 24,800 -774 Descending Chicago Center
Mon 04:57:29 PM 41.3628 -86.4761 291° West 410 472 23,400 -1,984 Descending Chicago Center
Mon 04:58:31 PM 41.4114 -86.6453 291° West 408 470 20,700 -2,419 Descending Chicago Center
Mon 04:59:33 PM 41.4522 -86.7856 291° West 407 468 18,400 -2,081 Descending Chicago Center
Mon 05:00:35 PM 41.4911 -86.9233 291° West 400 460 16,400 -2,032 Descending Chicago Center
Mon 05:01:37 PM 41.5278 -87.0564 290° West 385 443 14,200 -2,032 Descending Chicago Center
Mon 05:02:39 PM 41.5647 -87.1861 291° West 376 433 12,200 -1,742 Descending Chicago Center
Mon 05:03:41 PM 41.6139 -87.2975 301° West 355 409 10,600 -1,065 Descending Chicago Center
Mon 05:04:43 PM 41.6864 -87.4175 309° West 345 397 10,000 -288 Descending Chicago Center
Mon 05:05:46 PM 41.7467 -87.5158 309° West 343 395 10,000  Level Chicago Center
Mon 05:06:48 PM 41.8100 -87.6236 308° West 344 396 10,000 -726 Level Chicago Center
Mon 05:07:50 PM 41.8772 -87.6581 339° North 292 336 8,500 -1,548 Descending Chicago Center
Mon 05:08:52 PM 41.9531 -87.6611 358° North 273 314 6,800 -1,694 Descending Chicago Center
Mon 05:09:54 PM 42.0164 -87.6631 359° North 235 270 5,000 -1,113 Descending Chicago Center
Mon 05:10:56 PM 42.0806 -87.6808 348° North 228 262 4,500 -1,091 Descending Chicago Center
Mon 05:12:39 PM 42.0500 -87.8500 256° West 182 209 2,000 -1,244 Descending Chicago TRACON
Mon 05:13:40 PM 42.0167 -87.8833 217° Southwest 149 171 1,100 -885 Descending Chicago TRACON

Login

Don't have an account? Register now (free) for customized features, flight alerts, and more!